Time;durP1;ratioP1;P1;durP2;ratioP2;P2;SDS_P1;SDS_P2;PMS_P1;PMS_P2;Temp;Humidity;BMP_temperature;BMP_pressure;BME280_temperature;BME280_humidity;BME280_pressure;Samples;Min_cycle;Max_cycle;Signal;HPM_P1;HPM_P2
2021/10/18 00:00:14;;;;;;;10.52;5.78;;;11.40;91.70;;;;;;4772710;29;20142;-85
2021/10/18 00:02:39;;;;;;;10.88;6.10;;;11.40;91.80;;;;;;4786898;30;20048;-85
2021/10/18 00:05:06;;;;;;;11.85;6.03;;;11.40;91.70;;;;;;4772197;30;20051;-85
2021/10/18 00:07:32;;;;;;;12.15;6.45;;;11.30;91.80;;;;;;4772579;30;20135;-85
2021/10/18 00:09:57;;;;;;;10.88;5.95;;;11.30;91.70;;;;;;4803002;29;20055;-85
2021/10/18 00:12:23;;;;;;;10.60;6.07;;;11.40;91.80;;;;;;4799206;29;20051;-84
2021/10/18 00:14:48;;;;;;;12.00;6.30;;;11.40;91.80;;;;;;4772037;30;20087;-85
2021/10/18 00:17:14;;;;;;;11.13;6.13;;;11.40;91.90;;;;;;4772115;30;20054;-84
2021/10/18 00:19:40;;;;;;;10.15;6.00;;;11.40;92.00;;;;;;4786921;29;20078;-84
2021/10/18 00:22:05;;;;;;;8.77;5.40;;;11.40;91.90;;;;;;4791620;29;20050;-85
2021/10/18 00:24:31;;;;;;;9.68;5.78;;;11.30;91.90;;;;;;4771841;30;20087;-84
2021/10/18 00:26:57;;;;;;;9.93;5.85;;;11.30;91.90;;;;;;4771847;30;20066;-85
2021/10/18 00:29:22;;;;;;;10.95;6.57;;;11.30;91.90;;;;;;4771604;30;20116;-85
2021/10/18 00:31:48;;;;;;;9.07;5.90;;;11.30;91.90;;;;;;4770996;30;20450;-84
2021/10/18 00:34:13;;;;;;;14.15;6.10;;;11.30;92.00;;;;;;4772191;30;20420;-84
2021/10/18 00:36:39;;;;;;;10.20;6.35;;;11.30;91.90;;;;;;4771735;30;20050;-85
2021/10/18 00:39:05;;;;;;;10.75;5.60;;;11.30;91.90;;;;;;4771858;30;20130;-85
2021/10/18 00:41:31;;;;;;;11.65;5.97;;;11.30;91.90;;;;;;4771927;30;20100;-85
2021/10/18 00:43:57;;;;;;;13.05;6.63;;;11.30;92.00;;;;;;4771775;29;20048;-84
2021/10/18 00:46:24;;;;;;;11.32;6.22;;;11.30;91.90;;;;;;4771579;30;20460;-85
2021/10/18 00:48:54;;;;;;;10.35;6.50;;;11.30;91.90;;;;;;4796264;29;20051;-85
2021/10/18 00:51:25;;;;;;;10.75;5.80;;;11.30;91.90;;;;;;4802185;29;20050;-85
2021/10/18 00:53:54;;;;;;;11.65;6.50;;;11.30;91.90;;;;;;4771131;30;20112;-84
2021/10/18 00:56:20;;;;;;;10.55;5.95;;;11.30;91.90;;;;;;4772190;30;20043;-84
2021/10/18 00:58:48;;;;;;;10.20;5.57;;;11.30;92.00;;;;;;4772169;30;20063;-85
2021/10/18 01:01:14;;;;;;;12.65;6.55;;;11.30;91.90;;;;;;4771252;30;20044;-85
2021/10/18 01:03:40;;;;;;;11.25;5.93;;;11.30;91.90;;;;;;4799787;29;20075;-84
2021/10/18 01:06:06;;;;;;;11.77;6.00;;;11.30;91.90;;;;;;4772215;30;20078;-84
2021/10/18 01:08:32;;;;;;;10.27;6.18;;;11.30;92.00;;;;;;4771202;30;20489;-85
2021/10/18 01:10:57;;;;;;;9.95;5.70;;;11.30;92.00;;;;;;4772033;30;20112;-84
2021/10/18 01:13:23;;;;;;;12.65;6.13;;;11.30;92.10;;;;;;4771505;30;20117;-85
2021/10/18 01:15:49;;;;;;;12.27;6.75;;;11.30;92.20;;;;;;4771412;30;20047;-85
2021/10/18 01:18:15;;;;;;;11.90;6.63;;;11.30;92.10;;;;;;4787896;30;20128;-85
2021/10/18 01:20:41;;;;;;;12.10;6.70;;;11.30;92.10;;;;;;4771181;30;20524;-85
2021/10/18 01:23:09;;;;;;;10.57;6.55;;;11.30;92.00;;;;;;4787217;30;20505;-85
2021/10/18 01:25:35;;;;;;;10.43;5.97;;;11.30;92.10;;;;;;4763504;30;20055;-84
2021/10/18 01:28:02;;;;;;;10.30;6.20;;;11.30;92.00;;;;;;4753787;30;20048;-84
2021/10/18 01:30:27;;;;;;;10.60;6.07;;;11.30;92.60;;;;;;4783491;29;20051;-85
2021/10/18 01:32:53;;;;;;;11.57;6.57;;;11.30;92.30;;;;;;4771804;30;20047;-85
2021/10/18 01:35:19;;;;;;;9.75;5.95;;;11.30;92.20;;;;;;4771339;30;20055;-85
2021/10/18 01:37:45;;;;;;;10.38;6.38;;;11.30;92.30;;;;;;4770671;30;20067;-85
2021/10/18 01:40:14;;;;;;;10.65;6.00;;;11.30;92.30;;;;;;4771825;30;20061;-84
2021/10/18 01:42:41;;;;;;;11.10;6.10;;;11.30;92.30;;;;;;4789004;29;20465;-84
2021/10/18 01:45:09;;;;;;;9.65;6.03;;;11.30;92.30;;;;;;4775251;30;20043;-84
2021/10/18 01:47:34;;;;;;;10.68;5.75;;;11.30;92.30;;;;;;4774659;30;20055;-84
2021/10/18 01:50:00;;;;;;;16.70;6.57;;;11.30;92.30;;;;;;4774352;30;20111;-84
2021/10/18 01:52:26;;;;;;;11.52;5.95;;;11.30;92.30;;;;;;4774522;30;20066;-85
2021/10/18 01:54:52;;;;;;;9.27;5.78;;;11.30;92.30;;;;;;4774283;30;20058;-84
2021/10/18 01:57:18;;;;;;;9.25;5.80;;;11.30;92.20;;;;;;4773799;30;20084;-84
2021/10/18 01:59:44;;;;;;;10.80;6.75;;;11.30;92.20;;;;;;4774559;30;20046;-84
2021/10/18 02:02:10;;;;;;;10.13;5.90;;;11.30;92.30;;;;;;4774910;30;20425;-84
2021/10/18 02:04:35;;;;;;;10.77;6.60;;;11.30;92.20;;;;;;4789656;30;20039;-85
2021/10/18 02:07:01;;;;;;;10.70;6.53;;;11.30;92.20;;;;;;4774983;29;20059;-85
2021/10/18 02:09:26;;;;;;;12.23;7.13;;;11.30;92.20;;;;;;4774161;30;20039;-85
2021/10/18 02:11:52;;;;;;;10.07;6.43;;;11.30;92.10;;;;;;4772880;30;20078;-84
2021/10/18 02:14:18;;;;;;;13.23;6.78;;;11.20;92.10;;;;;;4773628;30;20044;-85
2021/10/18 02:16:44;;;;;;;13.77;7.05;;;11.20;92.20;;;;;;4790454;29;20051;-84
2021/10/18 02:19:09;;;;;;;10.73;6.55;;;11.20;92.20;;;;;;4773904;30;20047;-84
2021/10/18 02:21:35;;;;;;;12.68;6.93;;;11.20;92.10;;;;;;4790464;29;20108;-84
2021/10/18 02:24:01;;;;;;;11.73;6.30;;;11.20;92.10;;;;;;4790293;30;20462;-85
2021/10/18 02:26:27;;;;;;;11.07;6.28;;;11.20;92.20;;;;;;4773056;30;20105;-85
2021/10/18 02:28:52;;;;;;;12.00;6.32;;;11.20;92.10;;;;;;4774202;30;20055;-85
2021/10/18 02:31:18;;;;;;;11.48;6.45;;;11.20;92.20;;;;;;4773358;30;20051;-85
2021/10/18 02:33:43;;;;;;;12.40;6.50;;;11.20;92.20;;;;;;4789634;29;20112;-84
2021/10/18 02:36:09;;;;;;;9.73;6.15;;;11.10;92.20;;;;;;4789918;30;20134;-84
2021/10/18 02:38:35;;;;;;;13.10;6.32;;;11.10;92.20;;;;;;4789091;30;20481;-85
2021/10/18 02:41:00;;;;;;;11.75;6.45;;;11.10;92.30;;;;;;4774070;30;20048;-84
2021/10/18 02:43:26;;;;;;;12.15;7.40;;;11.10;92.30;;;;;;4773510;30;20149;-85
2021/10/18 02:45:52;;;;;;;11.25;6.90;;;11.00;92.20;;;;;;4773844;30;20055;-84
2021/10/18 02:48:17;;;;;;;10.82;6.82;;;11.10;92.50;;;;;;4774144;30;20531;-84
2021/10/18 02:50:43;;;;;;;11.23;6.28;;;11.00;92.40;;;;;;4773286;30;20043;-84
2021/10/18 02:53:08;;;;;;;9.90;6.68;;;11.00;92.50;;;;;;4773013;30;20062;-84
2021/10/18 02:55:34;;;;;;;11.20;6.78;;;11.00;92.80;;;;;;4773481;30;20044;-84
2021/10/18 02:58:00;;;;;;;9.13;6.35;;;10.90;93.00;;;;;;4773331;30;20062;-84
2021/10/18 03:00:25;;;;;;;11.43;7.38;;;11.00;93.10;;;;;;4773209;30;20095;-84
2021/10/18 03:02:51;;;;;;;8.70;6.25;;;10.90;92.90;;;;;;4773755;30;20053;-85
2021/10/18 03:05:17;;;;;;;9.65;5.95;;;10.90;93.10;;;;;;4774147;29;20104;-84
2021/10/18 03:07:43;;;;;;;9.85;6.38;;;10.90;93.00;;;;;;4772036;30;20159;-84
2021/10/18 03:10:09;;;;;;;10.00;6.28;;;10.90;93.20;;;;;;4773460;30;20548;-85
2021/10/18 03:12:35;;;;;;;9.63;6.20;;;10.80;93.30;;;;;;4772501;30;20139;-85
2021/10/18 03:15:02;;;;;;;13.20;6.90;;;10.80;93.30;;;;;;4772327;30;20055;-84
2021/10/18 03:17:28;;;;;;;9.38;6.63;;;10.80;93.40;;;;;;4773117;30;20055;-84
2021/10/18 03:19:53;;;;;;;8.88;6.20;;;10.80;93.40;;;;;;4773464;29;20055;-84
2021/10/18 03:22:19;;;;;;;11.05;6.43;;;10.80;93.50;;;;;;4772801;30;20079;-84
2021/10/18 03:24:45;;;;;;;12.18;7.10;;;10.70;93.40;;;;;;4789298;29;20059;-84
2021/10/18 03:27:10;;;;;;;10.70;6.65;;;10.70;93.20;;;;;;4773018;30;20117;-84
2021/10/18 03:29:36;;;;;;;12.15;6.63;;;10.70;93.30;;;;;;4772228;30;20100;-85
2021/10/18 03:32:02;;;;;;;12.90;6.57;;;10.70;93.10;;;;;;4784689;30;20040;-84
2021/10/18 03:34:27;;;;;;;13.30;7.28;;;10.60;93.30;;;;;;4801882;29;20055;-84
2021/10/18 03:36:53;;;;;;;12.65;6.95;;;10.60;93.10;;;;;;4772338;30;20117;-84
2021/10/18 03:39:18;;;;;;;10.32;6.70;;;10.60;93.00;;;;;;4773047;30;20122;-84
2021/10/18 03:41:44;;;;;;;11.70;7.55;;;10.60;93.10;;;;;;4772101;30;20055;-85
2021/10/18 03:44:10;;;;;;;10.93;6.65;;;10.50;93.00;;;;;;4773582;30;20054;-85
2021/10/18 03:46:35;;;;;;;10.00;6.82;;;10.50;93.00;;;;;;4772546;30;20492;-84
2021/10/18 03:49:01;;;;;;;12.18;7.68;;;10.50;93.10;;;;;;4772804;30;20044;-84
2021/10/18 03:51:26;;;;;;;9.93;6.82;;;10.50;93.30;;;;;;4772588;30;20043;-84
2021/10/18 03:53:52;;;;;;;12.65;7.97;;;10.40;93.30;;;;;;4772929;30;20050;-85
2021/10/18 03:56:18;;;;;;;11.32;7.22;;;10.40;93.20;;;;;;4772067;30;20489;-85
2021/10/18 03:58:43;;;;;;;10.38;7.25;;;10.40;93.50;;;;;;4773020;30;20059;-84
2021/10/18 04:01:09;;;;;;;13.07;7.72;;;10.30;93.40;;;;;;4772502;30;20055;-84
2021/10/18 04:03:36;;;;;;;11.95;8.20;;;10.30;93.60;;;;;;4771894;29;20043;-84
2021/10/18 04:06:02;;;;;;;9.57;6.72;;;10.30;93.60;;;;;;4772259;30;20058;-84
2021/10/18 04:08:31;;;;;;;12.18;7.88;;;10.30;93.50;;;;;;4771006;30;20039;-85
2021/10/18 04:10:57;;;;;;;10.50;7.35;;;10.30;93.30;;;;;;4770933;30;20059;-84
2021/10/18 04:13:23;;;;;;;10.93;7.53;;;10.30;93.30;;;;;;4770894;30;20419;-85
2021/10/18 04:15:48;;;;;;;9.32;7.32;;;10.20;93.40;;;;;;4772096;30;20043;-85
2021/10/18 04:18:14;;;;;;;14.23;8.80;;;10.20;93.40;;;;;;4771583;30;20459;-84
2021/10/18 04:20:42;;;;;;;10.10;7.93;;;10.20;93.50;;;;;;4772603;30;20083;-84
2021/10/18 04:23:08;;;;;;;12.27;7.38;;;10.20;93.70;;;;;;4771746;30;20086;-84
2021/10/18 04:25:33;;;;;;;13.00;8.45;;;10.20;93.80;;;;;;4771922;30;20077;-84
2021/10/18 04:27:59;;;;;;;13.35;8.00;;;10.20;93.90;;;;;;4772483;30;20051;-84
2021/10/18 04:30:24;;;;;;;13.27;8.10;;;10.20;93.90;;;;;;4772628;30;20088;-85
2021/10/18 04:32:50;;;;;;;12.52;8.10;;;10.20;93.80;;;;;;4771386;29;20051;-84
2021/10/18 04:35:16;;;;;;;10.82;8.10;;;10.20;94.00;;;;;;4771904;30;20398;-85
2021/10/18 04:37:41;;;;;;;12.68;8.40;;;10.20;93.90;;;;;;4772312;30;20048;-84
2021/10/18 04:40:07;;;;;;;11.43;8.45;;;10.20;93.90;;;;;;4771762;30;20196;-84
2021/10/18 04:42:33;;;;;;;11.70;7.88;;;10.20;93.80;;;;;;4771873;30;20047;-84
2021/10/18 04:44:58;;;;;;;11.82;8.27;;;10.20;94.40;;;;;;4771440;30;20078;-85
2021/10/18 04:47:24;;;;;;;10.30;7.65;;;10.20;94.10;;;;;;4772288;29;20074;-84
2021/10/18 04:49:52;;;;;;;11.70;7.97;;;10.20;94.00;;;;;;4771677;30;20049;-84
2021/10/18 04:52:17;;;;;;;10.90;8.02;;;10.20;93.90;;;;;;4771161;30;20043;-84
2021/10/18 04:54:43;;;;;;;11.35;7.75;;;10.20;93.90;;;;;;4771842;30;20057;-85
2021/10/18 04:57:09;;;;;;;11.75;8.57;;;10.10;93.80;;;;;;4771984;30;20047;-85
2021/10/18 04:59:34;;;;;;;12.18;8.38;;;10.20;94.00;;;;;;4771583;30;20063;-84
2021/10/18 05:02:00;;;;;;;12.52;8.23;;;10.10;94.00;;;;;;4772088;29;20074;-84
2021/10/18 05:04:25;;;;;;;11.88;8.13;;;10.10;94.00;;;;;;4771736;30;20111;-84
2021/10/18 05:06:51;;;;;;;12.13;9.02;;;10.10;94.00;;;;;;4771256;30;20047;-84
2021/10/18 05:09:16;;;;;;;11.10;8.15;;;10.10;94.00;;;;;;4771831;30;20051;-84
2021/10/18 05:11:42;;;;;;;10.35;7.78;;;10.10;94.00;;;;;;4771907;30;20047;-85
2021/10/18 05:14:07;;;;;;;12.25;8.10;;;10.10;93.90;;;;;;4771089;30;20047;-84
2021/10/18 05:16:34;;;;;;;12.85;8.57;;;10.00;93.80;;;;;;4773494;30;20073;-84
2021/10/18 05:19:00;;;;;;;12.23;8.68;;;10.00;93.90;;;;;;4776224;30;20066;-84
2021/10/18 05:21:25;;;;;;;11.73;8.02;;;10.00;93.90;;;;;;4775188;30;20485;-84
2021/10/18 05:23:51;;;;;;;12.85;8.60;;;10.00;94.00;;;;;;4775002;30;20062;-84
2021/10/18 05:26:17;;;;;;;13.43;9.13;;;10.00;94.00;;;;;;4774923;30;20043;-84
2021/10/18 05:28:42;;;;;;;12.77;8.60;;;10.00;93.90;;;;;;4774161;30;20043;-84
2021/10/18 05:31:08;;;;;;;12.13;8.27;;;10.00;93.80;;;;;;4775217;29;20069;-84
2021/10/18 05:33:34;;;;;;;14.60;8.85;;;9.90;93.70;;;;;;4773293;30;20112;-84
2021/10/18 05:35:59;;;;;;;11.93;8.50;;;9.90;93.80;;;;;;4790215;29;20048;-85
2021/10/18 05:38:25;;;;;;;14.75;10.43;;;9.90;93.70;;;;;;4774916;30;20051;-84
2021/10/18 05:40:52;;;;;;;12.63;8.95;;;9.90;93.70;;;;;;4775144;30;20051;-84
2021/10/18 05:43:18;;;;;;;12.80;8.98;;;9.90;93.70;;;;;;4774699;29;20055;-84
2021/10/18 05:45:44;;;;;;;14.55;9.18;;;9.90;93.70;;;;;;4774086;30;20055;-84
2021/10/18 05:48:12;;;;;;;12.50;8.70;;;9.80;93.70;;;;;;4789104;30;20051;-84
2021/10/18 05:50:42;;;;;;;15.90;9.52;;;9.80;93.90;;;;;;4774234;30;20055;-84
2021/10/18 05:53:08;;;;;;;12.35;9.00;;;9.80;94.30;;;;;;4789359;30;20130;-84
2021/10/18 05:55:34;;;;;;;12.82;9.05;;;9.80;93.90;;;;;;4786103;30;20079;-84
2021/10/18 05:58:03;;;;;;;11.20;9.02;;;9.80;93.80;;;;;;4787252;30;20091;-85
2021/10/18 06:00:33;;;;;;;15.48;9.32;;;9.70;93.80;;;;;;4756736;30;20528;-86
2021/10/18 06:02:59;;;;;;;15.45;10.90;;;9.70;94.00;;;;;;4766911;30;20055;-85
2021/10/18 06:05:24;;;;;;;13.27;10.23;;;9.70;94.00;;;;;;4775699;30;20047;-92
2021/10/18 06:07:51;;;;;;;14.40;10.27;;;9.70;94.10;;;;;;4775882;30;20059;-92
2021/10/18 06:10:32;;;;;;;13.90;9.90;;;9.70;94.20;;;;;;4776590;30;20532;-91
2021/10/18 06:13:00;;;;;;;15.93;10.55;;;9.70;94.00;;;;;;4776307;30;20075;-90
2021/10/18 06:15:26;;;;;;;18.63;11.63;;;9.70;94.20;;;;;;4774881;30;20105;-84
2021/10/18 06:17:52;;;;;;;18.48;13.32;;;9.70;94.20;;;;;;4774288;30;20535;-84
2021/10/18 06:20:19;;;;;;;13.73;9.75;;;9.70;94.50;;;;;;4773507;30;20054;-84
2021/10/18 06:22:46;;;;;;;13.85;10.57;;;9.70;94.10;;;;;;4773616;30;20059;-88
2021/10/18 06:25:11;;;;;;;15.48;10.23;;;9.70;94.20;;;;;;4773859;30;20055;-86
2021/10/18 06:27:37;;;;;;;13.57;9.38;;;9.70;94.20;;;;;;4771609;29;20074;-84
2021/10/18 06:30:04;;;;;;;18.05;11.85;;;9.70;94.20;;;;;;4786555;29;20398;-82
2021/10/18 06:32:31;;;;;;;13.95;10.30;;;9.70;94.10;;;;;;4779800;30;20138;-82
2021/10/18 06:34:57;;;;;;;19.02;12.10;;;9.70;93.90;;;;;;4779564;30;20532;-83
2021/10/18 06:37:22;;;;;;;14.57;10.25;;;9.70;93.80;;;;;;4772446;30;20052;-82
2021/10/18 06:39:48;;;;;;;15.15;10.55;;;9.70;93.90;;;;;;4773286;30;20051;-83
2021/10/18 06:42:14;;;;;;;14.80;10.50;;;9.70;93.80;;;;;;4774102;29;20079;-82
2021/10/18 06:44:42;;;;;;;15.02;10.20;;;9.70;93.90;;;;;;4775748;30;20120;-82
2021/10/18 06:47:08;;;;;;;15.73;11.38;;;9.70;93.90;;;;;;4780372;29;20377;-82
2021/10/18 06:49:37;;;;;;;13.82;9.77;;;9.70;93.90;;;;;;4788206;30;20553;-82
2021/10/18 06:52:03;;;;;;;18.60;13.15;;;9.70;93.90;;;;;;4773352;30;20047;-82
2021/10/18 06:54:36;;;;;;;16.58;11.95;;;9.70;93.80;;;;;;4772720;30;20090;-83
2021/10/18 06:57:02;;;;;;;16.40;11.88;;;9.70;93.80;;;;;;4792971;29;20550;-82
2021/10/18 06:59:28;;;;;;;23.33;14.48;;;9.70;93.80;;;;;;4788057;29;20055;-82
2021/10/18 07:01:53;;;;;;;14.55;11.20;;;9.70;93.80;;;;;;4789207;29;20070;-82
2021/10/18 07:04:21;;;;;;;14.05;10.82;;;9.70;93.80;;;;;;4789599;30;20054;-85
2021/10/18 07:06:47;;;;;;;17.02;12.45;;;9.60;93.70;;;;;;4772428;30;20557;-83
2021/10/18 07:09:12;;;;;;;15.40;11.50;;;9.60;93.80;;;;;;4772939;30;20063;-82
2021/10/18 07:11:38;;;;;;;19.30;13.07;;;9.60;93.90;;;;;;4772867;30;20044;-82
2021/10/18 07:14:03;;;;;;;18.30;13.13;;;9.70;94.00;;;;;;4771882;30;20157;-82
2021/10/18 07:16:29;;;;;;;17.58;11.95;;;9.70;94.10;;;;;;4772538;30;20050;-82
2021/10/18 07:18:55;;;;;;;24.10;14.88;;;9.70;94.10;;;;;;4772653;29;20077;-82
2021/10/18 07:21:20;;;;;;;19.42;14.60;;;9.70;94.20;;;;;;4771928;30;20054;-82
2021/10/18 07:23:51;;;;;;;19.17;14.27;;;9.70;94.20;;;;;;4771901;30;20062;-81
2021/10/18 07:26:18;;;;;;;23.17;14.75;;;9.80;94.30;;;;;;4772287;30;20047;-82
2021/10/18 07:28:43;;;;;;;19.90;13.35;;;9.80;94.30;;;;;;4785803;30;20047;-82
2021/10/18 07:31:09;;;;;;;20.33;14.85;;;9.80;94.30;;;;;;4773059;30;20055;-83
2021/10/18 07:33:35;;;;;;;18.52;14.15;;;9.90;94.30;;;;;;4770905;30;20454;-82
2021/10/18 07:36:08;;;;;;;23.10;16.10;;;9.90;94.20;;;;;;4773243;30;20409;-83
2021/10/18 07:38:38;;;;;;;22.65;15.15;;;9.90;94.20;;;;;;4772810;29;20062;-82
2021/10/18 07:41:05;;;;;;;23.23;16.95;;;10.00;94.20;;;;;;4771733;30;20059;-83
2021/10/18 07:43:31;;;;;;;26.40;18.50;;;10.00;94.60;;;;;;4772300;30;20492;-82
2021/10/18 07:45:56;;;;;;;23.13;16.40;;;10.10;94.30;;;;;;4773032;30;20074;-89
2021/10/18 07:48:22;;;;;;;23.85;16.42;;;10.10;94.30;;;;;;4771493;30;20451;-84
2021/10/18 07:50:48;;;;;;;46.70;29.27;;;10.20;94.20;;;;;;4772100;30;20100;-85
2021/10/18 07:53:13;;;;;;;36.60;23.13;;;10.20;94.20;;;;;;4772467;30;20055;-85
2021/10/18 07:55:39;;;;;;;27.58;18.83;;;10.20;94.20;;;;;;4772897;30;20047;-85
2021/10/18 07:58:04;;;;;;;27.50;18.40;;;10.30;94.10;;;;;;4772830;30;20055;-85
2021/10/18 08:00:30;;;;;;;23.30;18.05;;;10.30;94.10;;;;;;4787534;30;20142;-84
2021/10/18 08:02:56;;;;;;;25.05;18.27;;;10.40;94.10;;;;;;4771605;30;20051;-84
2021/10/18 08:05:23;;;;;;;28.98;17.75;;;10.40;94.00;;;;;;4771904;30;20043;-86
2021/10/18 08:07:50;;;;;;;27.00;18.90;;;10.50;94.00;;;;;;4771963;30;20062;-83
2021/10/18 08:10:23;;;;;;;24.38;18.40;;;10.50;93.90;;;;;;4771841;30;20130;-84
2021/10/18 08:12:51;;;;;;;25.67;19.63;;;10.60;93.90;;;;;;4771672;30;20051;-84
2021/10/18 08:15:16;;;;;;;24.17;17.58;;;10.60;93.90;;;;;;4787598;29;20414;-84
2021/10/18 08:17:42;;;;;;;23.58;17.58;;;10.70;93.90;;;;;;4771010;30;20132;-85
2021/10/18 08:20:08;;;;;;;28.13;18.38;;;10.70;93.80;;;;;;4771926;30;20488;-85
2021/10/18 08:22:34;;;;;;;23.67;17.38;;;10.70;93.90;;;;;;4787802;30;20139;-85
2021/10/18 08:25:00;;;;;;;21.65;17.40;;;10.80;93.90;;;;;;4771932;30;20146;-84
2021/10/18 08:27:25;;;;;;;25.80;17.83;;;10.80;93.80;;;;;;4772690;30;20051;-84
2021/10/18 08:29:51;;;;;;;23.95;18.48;;;10.80;93.80;;;;;;4771536;30;20066;-83
2021/10/18 08:32:16;;;;;;;23.00;17.10;;;10.90;93.70;;;;;;4772152;30;20103;-83
2021/10/18 08:34:42;;;;;;;24.73;17.52;;;10.90;93.70;;;;;;4771568;30;20111;-84
2021/10/18 08:37:08;;;;;;;26.20;18.75;;;10.90;93.60;;;;;;4771916;30;20409;-85
2021/10/18 08:42:20;;;;;;;;;;;11.00;93.60;;;;;;4787447;29;20059;-85
2021/10/18 08:44:47;;;;;;;27.67;18.10;;;11.00;93.60;;;;;;4793065;29;19933;-85
2021/10/18 08:47:13;;;;;;;27.25;18.58;;;11.10;93.60;;;;;;4771292;30;20078;-86
2021/10/18 08:49:39;;;;;;;25.38;18.33;;;11.10;93.50;;;;;;4771480;30;20043;-86
2021/10/18 08:52:05;;;;;;;25.85;18.25;;;11.10;93.50;;;;;;4770498;30;20124;-85
2021/10/18 08:54:32;;;;;;;25.80;19.27;;;11.20;93.50;;;;;;4771787;30;20094;-85
2021/10/18 08:56:57;;;;;;;26.98;19.27;;;11.20;93.50;;;;;;4772484;30;20519;-85
2021/10/18 08:59:27;;;;;;;27.83;18.92;;;11.30;93.50;;;;;;4771209;30;20056;-86
2021/10/18 09:01:57;;;;;;;28.92;19.67;;;11.30;93.40;;;;;;4771454;30;20058;-85
2021/10/18 09:04:29;;;;;;;24.15;18.48;;;11.30;93.30;;;;;;4770935;30;20050;-85
2021/10/18 09:07:00;;;;;;;24.05;18.55;;;11.40;93.20;;;;;;4770704;30;20051;-86
2021/10/18 09:09:28;;;;;;;23.35;17.30;;;11.40;93.20;;;;;;4771845;30;20146;-86
2021/10/18 09:11:57;;;;;;;24.15;17.92;;;11.50;93.20;;;;;;4754566;30;20048;-86
2021/10/18 09:14:24;;;;;;;25.27;18.92;;;11.50;93.10;;;;;;4766400;29;20055;-85
2021/10/18 09:16:49;;;;;;;24.95;18.33;;;11.60;93.00;;;;;;4766918;30;20046;-88
2021/10/18 09:19:23;;;;;;;24.85;18.70;;;11.60;93.00;;;;;;4766610;30;20063;-87
2021/10/18 09:22:03;;;;;;;25.60;18.05;;;11.70;92.90;;;;;;4770524;30;20075;-87
2021/10/18 09:24:29;;;;;;;23.60;17.90;;;11.70;92.80;;;;;;4768621;30;20055;-85
2021/10/18 09:27:16;;;;;;;24.60;18.15;;;11.70;92.80;;;;;;4770715;30;20063;-86
2021/10/18 09:29:47;;;;;;;27.23;18.90;;;11.80;92.70;;;;;;4771544;30;20146;-88
2021/10/18 09:32:30;;;;;;;26.08;18.67;;;11.80;92.70;;;;;;4770983;30;20091;-88
2021/10/18 09:35:07;;;;;;;25.90;19.27;;;11.80;92.60;;;;;;4774020;29;20393;-86
2021/10/18 09:37:41;;;;;;;24.27;18.05;;;11.90;92.70;;;;;;4773555;30;20044;-88
2021/10/18 09:40:07;;;;;;;25.77;18.50;;;11.90;92.60;;;;;;4786991;29;20091;-86
2021/10/18 09:42:33;;;;;;;23.25;18.02;;;12.00;92.60;;;;;;4796294;29;20042;-86
2021/10/18 10:53:42;;;;;;;22.00;15.73;;;13.00;91.10;;;;;;4798664;29;20489;-84
2021/10/18 10:56:32;;;;;;;21.35;15.73;;;13.10;91.00;;;;;;4823709;29;20062;-83
2021/10/18 10:59:24;;;;;;;21.38;16.63;;;13.20;90.70;;;;;;4794666;29;20042;-84
2021/10/18 11:01:53;;;;;;;23.90;16.35;;;13.20;90.70;;;;;;4806938;29;20054;-84
2021/10/18 11:04:33;;;;;;;21.55;15.80;;;13.20;90.60;;;;;;4808056;29;20510;-87
2021/10/18 11:07:10;;;;;;;21.38;16.08;;;13.30;90.50;;;;;;4793062;29;20054;-81
2021/10/18 11:09:55;;;;;;;21.40;15.73;;;13.30;90.50;;;;;;4792773;29;20047;-80
2021/10/18 11:12:28;;;;;;;19.90;15.88;;;13.30;90.30;;;;;;4802528;29;20145;-81
2021/10/18 11:14:56;;;;;;;;;;;13.30;90.30;;;;;;4809534;29;20084;-81
2021/10/18 11:17:26;;;;;;;22.10;15.93;;;13.30;90.10;;;;;;4804473;29;20054;-82
2021/10/18 11:20:08;;;;;;;20.13;14.93;;;13.40;90.40;;;;;;4808219;29;20050;-85
2021/10/18 11:22:36;;;;;;;21.08;14.35;;;13.40;90.20;;;;;;4799634;29;20038;-87
2021/10/18 11:25:07;;;;;;;20.38;14.23;;;13.50;90.10;;;;;;5064896;24;20110;-87
2021/10/18 11:27:36;;;;;;;19.83;14.88;;;13.50;90.10;;;;;;4793613;29;20407;-87
2021/10/18 11:30:08;;;;;;;17.80;13.68;;;13.60;90.20;;;;;;4791412;29;20054;-88
2021/10/18 11:32:35;;;;;;;21.95;14.68;;;13.60;89.80;;;;;;4802413;29;20050;-88
2021/10/18 11:35:18;;;;;;;20.58;14.27;;;13.60;89.70;;;;;;4824415;29;20061;-87
2021/10/18 11:37:55;;;;;;;20.45;14.75;;;13.70;89.50;;;;;;4802052;29;20043;-88
2021/10/18 11:40:43;;;;;;;22.35;14.55;;;13.70;89.80;;;;;;4808972;29;20391;-89
2021/10/18 11:43:14;;;;;;;17.52;13.52;;;13.70;89.60;;;;;;4805862;29;20500;-88
2021/10/18 11:45:42;;;;;;;18.85;14.10;;;13.70;89.20;;;;;;4808717;29;20085;-88
2021/10/18 11:48:12;;;;;;;19.83;14.18;;;13.80;89.50;;;;;;4796854;29;20058;-89
2021/10/18 11:50:43;;;;;;;17.00;13.90;;;13.80;89.70;;;;;;4813857;29;20046;-88
2021/10/18 11:53:39;;;;;;;19.00;13.75;;;13.90;89.60;;;;;;4822613;29;20305;-88
2021/10/18 11:56:05;;;;;;;22.45;14.93;;;13.90;89.10;;;;;;4799524;29;20062;-89
2021/10/18 11:58:33;;;;;;;17.15;13.45;;;14.00;89.70;;;;;;4800382;29;20198;-87
2021/10/18 12:01:20;;;;;;;20.75;13.55;;;14.00;89.40;;;;;;4808124;29;20073;-87
2021/10/18 12:03:46;;;;;;;19.25;13.25;;;14.00;89.40;;;;;;4790219;29;20172;-87
2021/10/18 12:06:12;;;;;;;17.63;13.15;;;14.10;89.10;;;;;;4798081;29;20133;-86
2021/10/18 12:08:40;;;;;;;20.00;13.30;;;14.10;89.30;;;;;;4804571;29;20054;-87
2021/10/18 12:11:13;;;;;;;18.20;12.57;;;14.10;89.50;;;;;;4808240;29;20052;-86
2021/10/18 12:13:40;;;;;;;17.88;12.30;;;14.20;89.50;;;;;;4801687;29;20046;-87
2021/10/18 12:16:09;;;;;;;17.38;12.25;;;14.20;89.40;;;;;;4799603;29;20039;-88
2021/10/18 12:18:47;;;;;;;16.75;11.88;;;14.20;88.50;;;;;;4815975;29;20071;-87
2021/10/18 12:21:14;;;;;;;17.83;12.40;;;14.20;87.70;;;;;;4824501;29;20514;-87
2021/10/18 12:23:48;;;;;;;16.33;12.18;;;14.20;87.80;;;;;;4793292;29;20157;-87
2021/10/18 12:26:19;;;;;;;18.13;12.27;;;14.20;87.20;;;;;;4810760;29;20062;-88
2021/10/18 12:29:09;;;;;;;17.42;12.40;;;14.30;87.30;;;;;;4814715;29;20042;-87
2021/10/18 12:31:39;;;;;;;17.00;12.48;;;14.30;87.20;;;;;;4798947;29;20062;-87
2021/10/18 12:34:25;;;;;;;20.08;13.57;;;14.30;87.10;;;;;;4801599;29;20047;-87
2021/10/18 12:37:12;;;;;;;17.75;12.73;;;14.30;86.40;;;;;;4820142;29;20058;-88
2021/10/18 12:39:54;;;;;;;16.77;12.82;;;14.40;86.80;;;;;;4817832;29;20042;-87
2021/10/18 12:42:20;;;;;;;21.60;12.75;;;14.40;87.00;;;;;;4805285;29;20050;-88
2021/10/18 12:44:48;;;;;;;18.35;12.27;;;14.40;86.90;;;;;;4806156;29;20054;-89
2021/10/18 12:47:26;;;;;;;16.55;11.52;;;14.40;86.50;;;;;;4800788;29;20051;-87
2021/10/18 12:50:03;;;;;;;17.73;12.13;;;14.50;86.50;;;;;;4810953;29;20049;-90
2021/10/18 12:52:34;;;;;;;19.02;11.75;;;14.50;85.90;;;;;;4834657;29;20487;-91
2021/10/18 12:55:19;;;;;;;17.20;11.77;;;14.50;86.00;;;;;;4813372;29;20055;-89
2021/10/18 12:57:51;;;;;;;18.65;12.30;;;14.50;85.90;;;;;;4811718;29;20474;-90
2021/10/18 13:00:20;;;;;;;17.83;12.18;;;14.50;85.50;;;;;;4835287;29;20053;-91
2021/10/18 13:02:46;;;;;;;18.52;11.95;;;14.50;86.00;;;;;;4814140;29;20050;-90
2021/10/18 13:05:15;;;;;;;17.00;12.38;;;14.50;86.20;;;;;;4830523;29;20046;-91
2021/10/18 13:07:56;;;;;;;16.05;11.65;;;14.60;85.90;;;;;;4823932;29;20050;-90
2021/10/18 13:10:25;;;;;;;23.88;11.73;;;14.60;86.20;;;;;;4824138;29;20064;-89
2021/10/18 13:12:50;;;;;;;17.27;11.55;;;14.60;86.10;;;;;;4823349;29;20035;-89
2021/10/18 13:15:18;;;;;;;19.15;11.30;;;14.60;86.10;;;;;;4798080;29;20047;-90
2021/10/18 13:17:45;;;;;;;22.40;11.88;;;14.60;86.00;;;;;;4814614;29;20046;-90
2021/10/18 13:20:14;;;;;;;15.23;11.15;;;14.60;85.90;;;;;;4820558;29;20377;-90
2021/10/18 13:22:40;;;;;;;16.85;11.73;;;14.60;85.80;;;;;;4819798;29;20489;-89
2021/10/18 13:25:07;;;;;;;15.80;11.48;;;14.70;86.20;;;;;;4805891;29;20055;-90
2021/10/18 13:27:33;;;;;;;15.07;10.88;;;14.70;86.60;;;;;;4819882;29;20084;-90
2021/10/18 13:29:59;;;;;;;18.98;11.45;;;14.70;87.00;;;;;;4807724;29;20487;-90
2021/10/18 13:32:25;;;;;;;15.05;11.25;;;14.70;86.70;;;;;;4795618;29;20050;-89
2021/10/18 13:34:50;;;;;;;16.45;11.07;;;14.70;86.60;;;;;;4800127;29;20046;-90
2021/10/18 13:37:16;;;;;;;14.95;10.75;;;14.70;86.50;;;;;;4807339;29;20192;-90
2021/10/18 13:39:42;;;;;;;17.13;10.25;;;14.70;86.40;;;;;;4826162;29;20404;-90
2021/10/18 13:42:09;;;;;;;17.30;10.98;;;14.80;86.00;;;;;;4827980;29;20038;-90
2021/10/18 13:44:37;;;;;;;16.23;10.63;;;14.80;86.20;;;;;;4812174;29;20126;-91
2021/10/18 13:47:03;;;;;;;15.40;10.43;;;14.80;86.10;;;;;;4808161;29;20051;-92
2021/10/18 13:49:29;;;;;;;16.38;10.32;;;14.80;86.70;;;;;;4812228;29;20596;-91